createdAt,value
2023-05-04T00:00:19.983Z,56.00
2023-05-04T00:02:47.152Z,55.90
2023-05-04T00:05:14.446Z,56.20
2023-05-04T00:07:41.647Z,56.20
2023-05-04T00:10:09.469Z,56.20
2023-05-04T00:12:36.518Z,56.20
2023-05-04T00:15:04.260Z,56.30
2023-05-04T00:17:31.859Z,56.40
2023-05-04T00:19:58.743Z,56.20
2023-05-04T00:22:25.718Z,56.50
2023-05-04T00:24:52.552Z,56.40
2023-05-04T00:27:19.536Z,56.50
2023-05-04T00:29:46.425Z,56.60
2023-05-04T00:32:13.385Z,56.90
2023-05-04T00:34:41.566Z,57.00
2023-05-04T00:37:09.119Z,56.80
2023-05-04T00:39:36.094Z,57.00
2023-05-04T00:42:03.204Z,56.90
2023-05-04T00:44:30.238Z,57.20
2023-05-04T00:46:57.631Z,57.00
2023-05-04T00:49:26.413Z,57.00
2023-05-04T00:51:54.932Z,57.40
2023-05-04T00:54:21.866Z,57.50
2023-05-04T00:56:49.383Z,57.40
2023-05-04T00:59:16.402Z,57.50
2023-05-04T01:01:43.263Z,57.50
2023-05-04T01:04:10.578Z,57.30
2023-05-04T01:07:01.287Z,57.40
2023-05-04T01:09:50.619Z,57.30
2023-05-04T01:12:40.772Z,57.60
2023-05-04T01:15:09.863Z,57.70
2023-05-04T01:17:36.931Z,57.60
2023-05-04T01:20:04.452Z,57.60
2023-05-04T01:22:31.777Z,57.90
2023-05-04T01:24:58.731Z,57.70
2023-05-04T01:27:44.615Z,57.70
2023-05-04T01:30:19.156Z,57.80
2023-05-04T01:32:47.292Z,58.00
2023-05-04T01:35:14.631Z,58.10
2023-05-04T01:37:41.677Z,58.40
2023-05-04T01:40:09.394Z,58.30
2023-05-04T01:42:36.273Z,58.50
2023-05-04T01:45:05.208Z,58.50
2023-05-04T01:47:32.277Z,58.70
2023-05-04T01:49:59.127Z,58.60
2023-05-04T01:52:25.972Z,58.50
2023-05-04T01:54:52.927Z,58.80
2023-05-04T01:57:19.801Z,58.70
2023-05-04T01:59:47.170Z,58.70
2023-05-04T02:02:14.155Z,58.70
2023-05-04T02:04:41.616Z,58.70
2023-05-04T02:07:08.468Z,58.80
2023-05-04T02:09:36.413Z,58.80
2023-05-04T02:12:03.536Z,59.10
2023-05-04T02:14:30.467Z,59.00
2023-05-04T02:16:57.803Z,59.10
2023-05-04T02:19:24.685Z,59.00
2023-05-04T02:21:52.462Z,59.00
2023-05-04T02:24:21.976Z,59.20
2023-05-04T02:26:48.859Z,59.30
2023-05-04T02:29:16.088Z,59.30
2023-05-04T02:31:43.057Z,59.40
2023-05-04T02:34:09.855Z,59.50
2023-05-04T02:36:47.150Z,59.60
2023-05-04T02:39:14.266Z,59.70
2023-05-04T02:41:41.089Z,59.90
2023-05-04T02:44:07.984Z,60.00
2023-05-04T02:46:34.821Z,60.00
2023-05-04T02:49:01.701Z,60.00
2023-05-04T02:51:28.652Z,59.90
2023-05-04T02:53:55.947Z,60.10
2023-05-04T02:56:24.404Z,60.10
2023-05-04T02:58:51.488Z,60.00
2023-05-04T03:01:18.500Z,60.00
2023-05-04T03:03:46.019Z,60.20
2023-05-04T03:06:12.962Z,60.20
2023-05-04T03:08:39.818Z,60.10
2023-05-04T03:11:06.596Z,60.30
2023-05-04T03:13:34.615Z,60.70
2023-05-04T03:16:02.658Z,60.30
2023-05-04T03:21:14.138Z,60.50
2023-05-04T03:23:42.029Z,60.80
2023-05-04T03:26:08.862Z,60.90
2023-05-04T03:28:36.231Z,61.00
2023-05-04T03:31:03.821Z,61.10
2023-05-04T03:33:30.774Z,61.20
2023-05-04T03:35:57.687Z,61.20
2023-05-04T03:38:24.457Z,61.40
2023-05-04T03:40:52.247Z,61.30
2023-05-04T03:43:19.113Z,61.40
2023-05-04T03:45:46.220Z,61.50
2023-05-04T03:48:13.160Z,61.70
2023-05-04T03:50:40.050Z,61.40
2023-05-04T03:53:08.246Z,61.50
2023-05-04T03:55:35.152Z,61.50
2023-05-04T03:58:03.540Z,61.70
2023-05-04T04:00:31.844Z,61.70
2023-05-04T04:03:08.558Z,61.70
2023-05-04T04:05:36.768Z,61.80
2023-05-04T04:08:03.947Z,61.50
2023-05-04T04:10:31.569Z,61.60
2023-05-04T04:12:58.527Z,61.70
2023-05-04T04:15:25.396Z,61.40
2023-05-04T04:17:52.271Z,61.60
2023-05-04T04:20:19.217Z,61.60
2023-05-04T04:22:46.224Z,61.80
2023-05-04T04:25:13.606Z,61.50
2023-05-04T04:27:41.258Z,61.50
2023-05-04T04:30:08.596Z,62.40
2023-05-04T04:32:36.083Z,61.60
2023-05-04T04:35:04.014Z,61.80
2023-05-04T04:37:31.140Z,61.80
2023-05-04T04:39:57.979Z,61.90
2023-05-04T04:42:24.921Z,61.90
2023-05-04T04:44:52.413Z,62.10
2023-05-04T04:47:19.206Z,61.90
2023-05-04T04:49:46.019Z,62.00
2023-05-04T04:52:13.010Z,62.10
2023-05-04T04:54:39.894Z,62.20
2023-05-04T04:57:06.787Z,62.10
2023-05-04T04:59:33.658Z,62.30
2023-05-04T05:02:00.729Z,62.30
2023-05-04T05:04:28.031Z,62.30
2023-05-04T05:06:54.942Z,62.60
2023-05-04T05:09:21.983Z,62.60
2023-05-04T05:11:48.910Z,62.80
2023-05-04T05:14:15.792Z,62.70
2023-05-04T05:16:42.824Z,63.00
2023-05-04T05:19:09.846Z,62.80
2023-05-04T05:21:36.692Z,62.90
2023-05-04T05:24:03.635Z,62.80
2023-05-04T05:26:30.511Z,62.80
2023-05-04T05:28:57.533Z,62.90
2023-05-04T05:31:24.671Z,62.60
2023-05-04T05:33:51.771Z,62.50
2023-05-04T05:36:18.813Z,62.50
2023-05-04T05:38:46.333Z,62.50
2023-05-04T05:41:15.323Z,62.50
2023-05-04T05:43:42.217Z,62.60
2023-05-04T05:46:09.510Z,62.60
2023-05-04T05:48:36.531Z,62.20
2023-05-04T05:51:04.076Z,61.80
2023-05-04T05:53:31.021Z,62.00
2023-05-04T05:55:58.023Z,61.90
2023-05-04T05:58:24.880Z,62.10
2023-05-04T06:00:51.915Z,61.90
2023-05-04T06:03:19.026Z,62.20
2023-05-04T06:05:46.212Z,61.70
2023-05-04T06:08:13.075Z,61.80
2023-05-04T06:10:39.987Z,61.80
2023-05-04T06:13:06.859Z,62.30
2023-05-04T06:15:34.802Z,60.90
2023-05-04T06:18:01.705Z,60.40
2023-05-04T06:20:29.263Z,60.80
2023-05-04T06:22:57.111Z,60.00
2023-05-04T06:25:24.174Z,59.80
2023-05-04T06:27:51.355Z,60.00
2023-05-04T06:30:19.180Z,60.20
2023-05-04T06:32:46.934Z,59.60
2023-05-04T06:35:13.994Z,59.50
2023-05-04T06:37:41.714Z,59.20
2023-05-04T06:40:09.376Z,58.10
2023-05-04T06:42:36.530Z,58.40
2023-05-04T06:45:03.664Z,58.00
2023-05-04T06:47:31.015Z,57.20
2023-05-04T06:49:57.863Z,58.30
2023-05-04T06:52:24.746Z,60.00
2023-05-04T06:54:51.711Z,57.60
2023-05-04T06:57:18.582Z,57.30
2023-05-04T06:59:45.945Z,56.60
2023-05-04T07:02:12.724Z,55.50
2023-05-04T07:04:39.639Z,55.00
2023-05-04T07:07:06.699Z,54.70
2023-05-04T07:09:34.067Z,54.00
2023-05-04T07:12:01.922Z,53.10
2023-05-04T07:14:28.763Z,52.70
2023-05-04T07:16:55.702Z,53.50
2023-05-04T07:19:22.764Z,52.60
2023-05-04T07:21:49.719Z,53.00
2023-05-04T07:24:16.567Z,50.50
2023-05-04T07:26:43.344Z,49.80
2023-05-04T07:29:10.302Z,49.70
2023-05-04T07:31:38.392Z,50.30
2023-05-04T07:34:06.367Z,50.30
2023-05-04T07:36:35.651Z,50.00
2023-05-04T07:39:02.504Z,49.30
2023-05-04T07:41:29.626Z,49.00
2023-05-04T07:43:56.541Z,49.00
2023-05-04T07:46:23.453Z,48.80
2023-05-04T07:48:50.545Z,47.60
2023-05-04T07:51:17.552Z,47.60
2023-05-04T07:53:44.518Z,45.90
2023-05-04T07:56:12.804Z,44.90
2023-05-04T07:58:39.986Z,44.50
2023-05-04T08:01:06.857Z,45.20
2023-05-04T08:03:33.868Z,46.70
2023-05-04T08:06:00.756Z,46.50
2023-05-04T08:08:27.727Z,45.40
2023-05-04T08:10:56.251Z,44.60
2023-05-04T08:13:28.954Z,43.70
2023-05-04T08:16:01.047Z,45.00
2023-05-04T08:18:28.303Z,45.00
2023-05-04T08:20:55.263Z,45.90
2023-05-04T08:23:22.229Z,43.70
2023-05-04T08:25:49.101Z,44.00
2023-05-04T08:28:15.970Z,43.00
2023-05-04T08:30:43.477Z,43.00
2023-05-04T08:33:10.422Z,43.40
2023-05-04T08:35:37.989Z,42.70
2023-05-04T08:38:05.041Z,42.60
2023-05-04T08:40:33.052Z,42.50
2023-05-04T08:43:00.041Z,42.20
2023-05-04T08:45:28.547Z,41.20
2023-05-04T08:47:55.524Z,41.10
2023-05-04T08:50:22.730Z,41.20
2023-05-04T08:52:50.277Z,41.50
2023-05-04T08:55:17.948Z,40.00
2023-05-04T08:57:45.094Z,39.70
2023-05-04T09:00:16.366Z,40.10
2023-05-04T09:02:44.325Z,41.70
2023-05-04T09:05:12.143Z,41.10
2023-05-04T09:07:39.021Z,41.10
2023-05-04T09:10:06.512Z,40.40
2023-05-04T09:12:33.693Z,40.80
2023-05-04T09:15:02.747Z,39.00
2023-05-04T09:17:29.923Z,38.70
2023-05-04T09:20:04.864Z,37.40
2023-05-04T09:22:32.071Z,38.80
2023-05-04T09:25:25.356Z,38.40
2023-05-04T09:27:55.020Z,38.00
2023-05-04T09:30:22.244Z,37.60
2023-05-04T09:32:49.767Z,37.70
2023-05-04T09:35:31.895Z,37.30
2023-05-04T09:38:00.373Z,37.20
2023-05-04T09:40:30.981Z,37.90
2023-05-04T09:42:57.947Z,34.80
2023-05-04T09:45:24.897Z,35.00
2023-05-04T09:47:53.200Z,35.00
2023-05-04T09:50:23.294Z,34.20
2023-05-04T09:52:50.639Z,33.80
2023-05-04T09:55:19.466Z,34.50
2023-05-04T09:57:48.604Z,34.70
2023-05-04T10:00:17.327Z,35.10
2023-05-04T10:02:45.325Z,33.40
2023-05-04T10:05:18.159Z,34.30
2023-05-04T10:07:45.357Z,34.00
2023-05-04T10:10:13.434Z,33.10
2023-05-04T10:12:40.544Z,35.00
2023-05-04T10:15:09.302Z,35.10
2023-05-04T10:17:48.242Z,37.00
2023-05-04T10:20:38.482Z,34.90
2023-05-04T10:23:09.370Z,35.50
2023-05-04T10:26:04.403Z,35.10
2023-05-04T10:28:40.491Z,34.90
2023-05-04T10:31:07.593Z,34.60
2023-05-04T10:33:41.931Z,34.70
2023-05-04T10:36:10.009Z,33.10
2023-05-04T10:38:38.946Z,34.40
2023-05-04T10:41:15.590Z,34.40
2023-05-04T10:43:42.991Z,33.90
2023-05-04T10:46:21.381Z,33.60
2023-05-04T10:48:48.842Z,35.20
2023-05-04T10:51:32.752Z,34.30
2023-05-04T10:54:03.289Z,34.60
2023-05-04T10:56:30.415Z,35.70
2023-05-04T10:59:08.024Z,35.20
2023-05-04T11:01:45.428Z,34.40
2023-05-04T11:04:22.531Z,34.20
2023-05-04T11:07:02.161Z,34.10
2023-05-04T11:09:41.456Z,33.90
2023-05-04T11:12:12.163Z,34.70
2023-05-04T11:14:43.351Z,34.10
2023-05-04T11:19:50.980Z,35.00
2023-05-04T11:22:18.549Z,35.00
2023-05-04T11:24:46.546Z,35.60
2023-05-04T11:27:23.751Z,34.90
2023-05-04T11:30:01.046Z,34.00
2023-05-04T11:32:38.028Z,33.10
2023-05-04T11:35:08.624Z,33.70
2023-05-04T11:37:43.480Z,33.00
2023-05-04T11:40:15.261Z,33.10
2023-05-04T11:42:43.095Z,33.00
2023-05-04T11:45:17.940Z,32.80
2023-05-04T11:47:45.990Z,33.30
2023-05-04T11:50:14.839Z,35.10
2023-05-04T11:52:42.092Z,32.70
2023-05-04T11:55:13.449Z,33.70
2023-05-04T11:57:40.476Z,32.50
2023-05-04T12:00:09.046Z,33.50
2023-05-04T12:02:36.370Z,33.50
2023-05-04T12:05:03.984Z,33.20
2023-05-04T12:07:37.234Z,33.80
2023-05-04T12:10:04.291Z,32.30
2023-05-04T12:12:36.252Z,34.30
2023-05-04T12:15:03.283Z,34.20
2023-05-04T12:17:41.391Z,33.00
2023-05-04T12:20:08.842Z,32.20
2023-05-04T12:22:36.046Z,32.80
2023-05-04T12:25:03.035Z,32.70
2023-05-04T12:27:29.904Z,33.00
2023-05-04T12:29:56.906Z,33.10
2023-05-04T12:32:23.829Z,33.50
2023-05-04T12:34:50.831Z,33.00
2023-05-04T12:37:17.832Z,33.50
2023-05-04T12:39:45.959Z,33.20
2023-05-04T12:42:12.784Z,33.70
2023-05-04T12:44:39.680Z,33.40
2023-05-04T12:47:06.937Z,33.70
2023-05-04T12:49:33.941Z,33.50
2023-05-04T12:52:00.868Z,33.30
2023-05-04T12:54:27.693Z,34.90
2023-05-04T12:56:54.619Z,35.20
2023-05-04T12:59:22.616Z,33.60
2023-05-04T13:01:49.574Z,32.60
2023-05-04T13:04:16.706Z,34.20
2023-05-04T13:06:44.591Z,34.20
2023-05-04T13:09:12.988Z,35.10
2023-05-04T13:11:39.899Z,34.20
2023-05-04T13:14:07.570Z,34.10
2023-05-04T13:16:34.647Z,34.60
2023-05-04T13:19:01.559Z,35.10
2023-05-04T13:21:28.432Z,33.90
2023-05-04T13:23:55.694Z,34.80
2023-05-04T13:26:22.588Z,34.10
2023-05-04T13:28:50.852Z,34.40
2023-05-04T13:31:17.830Z,35.50
2023-05-04T13:33:46.275Z,35.40
2023-05-04T13:36:13.142Z,34.80
2023-05-04T13:38:40.126Z,35.30
2023-05-04T13:41:07.136Z,35.50
2023-05-04T13:43:34.032Z,36.20
2023-05-04T13:46:04.820Z,36.10
2023-05-04T13:48:33.852Z,36.40
2023-05-04T13:51:03.922Z,35.80
2023-05-04T13:53:30.823Z,35.10
2023-05-04T13:55:57.788Z,34.80
2023-05-04T13:58:24.659Z,36.10
2023-05-04T14:00:51.594Z,35.60
2023-05-04T14:03:18.465Z,36.20
2023-05-04T14:05:45.297Z,35.80
2023-05-04T14:08:13.164Z,35.60
2023-05-04T14:10:40.095Z,36.50
2023-05-04T14:13:07.365Z,36.00
2023-05-04T14:15:34.614Z,35.90
2023-05-04T14:18:01.612Z,35.20
2023-05-04T14:20:28.522Z,37.40
2023-05-04T14:22:55.478Z,36.30
2023-05-04T14:25:22.449Z,35.70
2023-05-04T14:27:49.412Z,34.80
2023-05-04T14:30:16.434Z,35.30
2023-05-04T14:32:43.497Z,35.10
2023-05-04T14:35:11.187Z,35.00
2023-05-04T14:37:39.472Z,34.70
2023-05-04T14:40:09.287Z,34.60
2023-05-04T14:42:37.271Z,34.40
2023-05-04T14:45:05.654Z,35.80
2023-05-04T14:47:33.843Z,34.80
2023-05-04T14:50:04.121Z,35.20
2023-05-04T14:52:31.160Z,36.00
2023-05-04T14:54:58.058Z,34.70
2023-05-04T14:57:24.994Z,35.20
2023-05-04T14:59:52.134Z,35.10
2023-05-04T15:02:19.360Z,34.90
2023-05-04T15:04:46.988Z,34.80
2023-05-04T15:07:18.648Z,34.60
2023-05-04T15:09:45.645Z,34.10
2023-05-04T15:12:12.546Z,34.40
2023-05-04T15:14:39.405Z,34.10
2023-05-04T15:17:07.397Z,34.50
2023-05-04T15:19:38.096Z,34.10
2023-05-04T15:22:05.697Z,34.10
2023-05-04T15:24:32.890Z,34.10
2023-05-04T15:26:59.768Z,33.90
2023-05-04T15:29:26.975Z,34.30
2023-05-04T15:31:55.007Z,34.60
2023-05-04T15:34:21.856Z,34.60
2023-05-04T15:36:48.698Z,34.10
2023-05-04T15:39:15.617Z,34.40
2023-05-04T15:41:43.013Z,34.80
2023-05-04T15:44:10.118Z,34.40
2023-05-04T15:46:37.543Z,34.70
2023-05-04T15:49:04.484Z,35.10
2023-05-04T15:51:31.941Z,35.30
2023-05-04T15:54:00.430Z,35.40
2023-05-04T15:56:27.982Z,34.50
2023-05-04T15:58:54.949Z,34.60
2023-05-04T16:01:21.914Z,35.20
2023-05-04T16:03:48.902Z,34.80
2023-05-04T16:06:17.538Z,35.60
2023-05-04T16:08:44.399Z,35.10
2023-05-04T16:11:11.443Z,35.30
2023-05-04T16:13:38.808Z,34.80
2023-05-04T16:16:06.322Z,35.10
2023-05-04T16:18:33.152Z,35.10
2023-05-04T16:21:00.123Z,36.00
2023-05-04T16:23:28.166Z,35.90
2023-05-04T16:25:55.074Z,35.50
2023-05-04T16:28:21.946Z,35.30
2023-05-04T16:30:49.625Z,35.40
2023-05-04T16:33:16.405Z,35.40
2023-05-04T16:35:43.330Z,35.70
2023-05-04T16:38:13.180Z,35.40
2023-05-04T16:40:42.299Z,35.90
2023-05-04T16:43:10.512Z,35.90
2023-05-04T16:45:38.330Z,35.90
2023-05-04T16:48:06.338Z,36.20
2023-05-04T16:50:33.491Z,35.90
2023-05-04T16:53:00.591Z,36.00
2023-05-04T16:55:27.473Z,36.40
2023-05-04T16:57:58.282Z,36.70
2023-05-04T17:00:25.770Z,36.20
2023-05-04T17:02:52.968Z,36.20
2023-05-04T17:05:20.502Z,36.30
2023-05-04T17:07:47.694Z,36.40
2023-05-04T17:10:18.717Z,36.10
2023-05-04T17:12:45.684Z,36.50
2023-05-04T17:15:13.008Z,36.60
2023-05-04T17:17:40.994Z,36.70
2023-05-04T17:20:09.479Z,36.30
2023-05-04T17:22:36.958Z,36.80
2023-05-04T17:25:04.059Z,36.30
2023-05-04T17:27:31.028Z,36.90
2023-05-04T17:29:58.061Z,36.20
2023-05-04T17:32:24.923Z,36.50
2023-05-04T17:34:51.838Z,37.30
2023-05-04T17:37:18.690Z,37.00
2023-05-04T17:39:47.147Z,37.00
2023-05-04T17:42:16.026Z,37.30
2023-05-04T17:44:43.035Z,37.30
2023-05-04T17:47:10.167Z,37.80
2023-05-04T17:49:37.118Z,37.40
2023-05-04T17:52:04.415Z,37.80
2023-05-04T17:54:31.288Z,37.60
2023-05-04T17:56:58.219Z,37.60
2023-05-04T17:59:25.105Z,38.20
2023-05-04T18:01:52.005Z,38.10
2023-05-04T18:04:18.777Z,38.30
2023-05-04T18:06:45.826Z,38.40
2023-05-04T18:09:12.720Z,38.60
2023-05-04T18:11:39.863Z,38.80
2023-05-04T18:14:07.137Z,39.10
2023-05-04T18:16:36.218Z,39.20
2023-05-04T18:19:03.154Z,39.30
2023-05-04T18:21:30.107Z,39.30
2023-05-04T18:23:57.005Z,39.60
2023-05-04T18:26:23.790Z,39.50
2023-05-04T18:28:50.734Z,39.60
2023-05-04T18:31:18.900Z,39.50
2023-05-04T18:33:45.749Z,39.60
2023-05-04T18:36:12.660Z,39.80
2023-05-04T18:38:39.752Z,39.50
2023-05-04T18:41:06.741Z,39.30
2023-05-04T18:43:33.558Z,39.50
2023-05-04T18:46:07.497Z,39.70
2023-05-04T18:48:34.525Z,39.80
2023-05-04T18:51:02.084Z,40.10
2023-05-04T18:53:29.130Z,39.90
2023-05-04T18:56:10.460Z,40.40
2023-05-04T18:58:38.739Z,40.50
2023-05-04T19:01:06.216Z,40.40
2023-05-04T19:03:33.633Z,40.50
2023-05-04T19:06:00.593Z,40.50
2023-05-04T19:08:27.560Z,40.60
2023-05-04T19:10:58.469Z,40.90
2023-05-04T19:13:25.490Z,40.90
2023-05-04T19:15:52.456Z,40.90
2023-05-04T19:18:19.561Z,40.90
2023-05-04T19:20:46.579Z,41.10
2023-05-04T19:23:13.446Z,41.10
2023-05-04T19:25:40.660Z,41.20
2023-05-04T19:28:10.747Z,41.30
2023-05-04T19:30:39.072Z,41.60
2023-05-04T19:33:09.623Z,41.60
2023-05-04T19:35:36.583Z,41.40
2023-05-04T19:38:06.189Z,41.50
2023-05-04T19:40:34.385Z,41.70
2023-05-04T19:43:01.392Z,41.70
2023-05-04T19:45:28.254Z,42.20
2023-05-04T19:47:55.132Z,42.50
2023-05-04T19:50:22.220Z,42.80
2023-05-04T19:52:49.115Z,42.20
2023-05-04T19:55:16.900Z,42.00
2023-05-04T19:57:44.054Z,42.30
2023-05-04T20:00:11.402Z,43.80
2023-05-04T20:02:41.165Z,43.50
2023-05-04T20:05:08.479Z,42.60
2023-05-04T20:07:35.463Z,42.60
2023-05-04T20:10:03.125Z,42.10
2023-05-04T20:12:30.048Z,42.50
2023-05-04T20:14:57.045Z,42.50
2023-05-04T20:17:24.090Z,42.50
2023-05-04T20:19:51.011Z,42.50
2023-05-04T20:22:17.896Z,42.60
2023-05-04T20:24:45.051Z,43.00
2023-05-04T20:27:12.456Z,43.00
2023-05-04T20:29:39.562Z,43.00
2023-05-04T20:32:07.402Z,43.50
2023-05-04T20:34:34.329Z,43.40
2023-05-04T20:37:01.177Z,44.40
2023-05-04T20:39:28.356Z,44.10
2023-05-04T20:41:55.224Z,44.10
2023-05-04T20:44:22.287Z,43.60
2023-05-04T20:46:49.450Z,43.50
2023-05-04T20:49:16.450Z,43.90
2023-05-04T20:51:43.268Z,43.70
2023-05-04T20:54:10.396Z,43.60
2023-05-04T20:56:37.479Z,43.90
2023-05-04T20:59:04.374Z,43.60
2023-05-04T21:01:31.328Z,43.60
2023-05-04T21:03:58.428Z,43.80
2023-05-04T21:06:25.437Z,43.70
2023-05-04T21:08:52.417Z,44.00
2023-05-04T21:11:19.359Z,44.10
2023-05-04T21:13:46.258Z,44.00
2023-05-04T21:16:14.044Z,44.20
2023-05-04T21:18:41.012Z,43.90
2023-05-04T21:21:07.888Z,44.20
2023-05-04T21:23:34.699Z,44.20
2023-05-04T21:26:04.954Z,44.50
2023-05-04T21:28:32.194Z,44.70
2023-05-04T21:30:59.441Z,44.80
2023-05-04T21:33:26.316Z,44.90
2023-05-04T21:35:53.422Z,45.10
2023-05-04T21:38:22.058Z,45.10
2023-05-04T21:40:49.344Z,45.50
2023-05-04T21:43:16.389Z,45.20
2023-05-04T21:45:43.432Z,45.10
2023-05-04T21:48:10.425Z,45.30
2023-05-04T21:50:37.516Z,45.50
2023-05-04T21:53:04.465Z,45.80
2023-05-04T21:55:31.423Z,45.80
2023-05-04T21:57:58.418Z,45.90
2023-05-04T22:00:25.608Z,46.20
2023-05-04T22:02:55.061Z,46.00
2023-05-04T22:05:22.615Z,46.90
2023-05-04T22:07:50.278Z,49.00
2023-05-04T22:10:17.853Z,48.60
2023-05-04T22:12:44.954Z,46.50
2023-05-04T22:15:12.078Z,45.90
2023-05-04T22:17:39.327Z,45.90
2023-05-04T22:20:07.291Z,46.00
2023-05-04T22:22:35.125Z,47.20
2023-05-04T22:25:02.378Z,46.30
2023-05-04T22:27:29.480Z,46.40
2023-05-04T22:29:56.386Z,46.70
2023-05-04T22:32:23.306Z,46.70
2023-05-04T22:34:50.377Z,46.60
2023-05-04T22:37:17.262Z,46.80
2023-05-04T22:39:44.106Z,46.80
2023-05-04T22:42:10.917Z,47.20
2023-05-04T22:44:37.948Z,47.20
2023-05-04T22:47:05.070Z,47.20
2023-05-04T22:49:32.004Z,46.80
2023-05-04T22:51:58.897Z,46.50
2023-05-04T22:54:25.801Z,46.50
2023-05-04T22:56:52.908Z,46.50
2023-05-04T22:59:19.851Z,46.60
2023-05-04T23:01:46.936Z,47.80
2023-05-04T23:04:14.020Z,49.20
2023-05-04T23:06:40.911Z,48.60
2023-05-04T23:09:07.972Z,48.40
2023-05-04T23:11:34.906Z,48.40
2023-05-04T23:14:01.847Z,48.70
2023-05-04T23:16:29.094Z,48.70
2023-05-04T23:18:57.429Z,48.90
2023-05-04T23:32:28.276Z,50.30
2023-05-04T23:34:55.251Z,50.00
2023-05-04T23:37:22.778Z,50.60
2023-05-04T23:39:49.664Z,50.80
2023-05-04T23:42:16.616Z,50.70
2023-05-04T23:44:43.493Z,50.50
2023-05-04T23:47:10.296Z,51.10
2023-05-04T23:49:37.252Z,51.00
2023-05-04T23:52:04.178Z,51.30
2023-05-04T23:54:31.718Z,51.10
2023-05-04T23:56:59.350Z,51.20
2023-05-04T23:59:26.899Z,51.20
